sensor_id;sensor_type;location;lat;lon;timestamp;P1;durP1;ratioP1;P2;durP2;ratioP2
60306;SDS011;46155;52.364;6.580;2022-08-25T03:01:54;11.30;;;9.40;;
60306;SDS011;46155;52.364;6.580;2022-08-25T03:04:19;11.83;;;9.80;;
60306;SDS011;46155;52.364;6.580;2022-08-25T03:06:45;10.77;;;9.47;;
60306;SDS011;46155;52.364;6.580;2022-08-25T03:09:11;11.30;;;10.20;;
60306;SDS011;46155;52.364;6.580;2022-08-25T03:11:37;10.40;;;9.73;;
60306;SDS011;46155;52.364;6.580;2022-08-25T03:14:03;10.43;;;9.83;;
60306;SDS011;46155;52.364;6.580;2022-08-25T03:16:30;11.33;;;10.30;;
60306;SDS011;46155;52.364;6.580;2022-08-25T03:18:55;11.20;;;10.10;;
60306;SDS011;46155;52.364;6.580;2022-08-25T03:21:21;10.20;;;9.50;;
60306;SDS011;46155;52.364;6.580;2022-08-25T03:23:47;10.47;;;9.67;;
60306;SDS011;46155;52.364;6.580;2022-08-25T03:26:12;10.73;;;9.13;;
60306;SDS011;46155;52.364;6.580;2022-08-25T03:28:56;10.57;;;9.77;;
60306;SDS011;46155;52.364;6.580;2022-08-25T03:31:22;9.63;;;8.93;;
60306;SDS011;46155;52.364;6.580;2022-08-25T03:33:49;10.37;;;9.60;;
60306;SDS011;46155;52.364;6.580;2022-08-25T03:36:15;10.20;;;9.37;;
60306;SDS011;46155;52.364;6.580;2022-08-25T03:38:40;10.37;;;9.77;;
60306;SDS011;46155;52.364;6.580;2022-08-25T03:43:48;11.37;;;10.50;;
60306;SDS011;46155;52.364;6.580;2022-08-25T03:46:21;10.95;;;9.75;;
60306;SDS011;46155;52.364;6.580;2022-08-25T03:48:50;15.53;;;10.27;;
60306;SDS011;46155;52.364;6.580;2022-08-25T03:51:26;10.43;;;9.53;;
60306;SDS011;46155;52.364;6.580;2022-08-25T03:53:54;10.20;;;9.40;;
60306;SDS011;46155;52.364;6.580;2022-08-25T03:56:20;10.07;;;9.20;;
60306;SDS011;46155;52.364;6.580;2022-08-25T03:58:45;10.73;;;9.73;;
60306;SDS011;46155;52.364;6.580;2022-08-25T04:01:12;9.93;;;9.20;;
60306;SDS011;46155;52.364;6.580;2022-08-25T04:03:38;9.23;;;8.63;;
60306;SDS011;46155;52.364;6.580;2022-08-25T04:06:04;9.67;;;8.90;;
60306;SDS011;46155;52.364;6.580;2022-08-25T04:08:30;10.03;;;9.43;;
60306;SDS011;46155;52.364;6.580;2022-08-25T04:10:56;9.73;;;9.13;;
60306;SDS011;46155;52.364;6.580;2022-08-25T04:13:21;10.03;;;9.30;;
60306;SDS011;46155;52.364;6.580;2022-08-25T04:15:46;11.77;;;10.50;;
60306;SDS011;46155;52.364;6.580;2022-08-25T04:18:12;9.93;;;9.13;;
60306;SDS011;46155;52.364;6.580;2022-08-25T04:20:38;9.90;;;9.10;;
60306;SDS011;46155;52.364;6.580;2022-08-25T04:23:05;9.70;;;9.07;;
60306;SDS011;46155;52.364;6.580;2022-08-25T04:25:30;12.80;;;10.13;;
60306;SDS011;46155;52.364;6.580;2022-08-25T04:27:55;10.47;;;9.77;;
60306;SDS011;46155;52.364;6.580;2022-08-25T04:30:21;10.97;;;9.73;;
60306;SDS011;46155;52.364;6.580;2022-08-25T04:32:47;13.87;;;9.77;;
60306;SDS011;46155;52.364;6.580;2022-08-25T04:35:13;9.90;;;8.83;;
60306;SDS011;46155;52.364;6.580;2022-08-25T04:37:39;9.37;;;8.63;;
60306;SDS011;46155;52.364;6.580;2022-08-25T04:40:05;9.77;;;9.00;;
60306;SDS011;46155;52.364;6.580;2022-08-25T04:42:30;7.90;;;7.30;;
60306;SDS011;46155;52.364;6.580;2022-08-25T04:44:56;8.77;;;7.73;;
60306;SDS011;46155;52.364;6.580;2022-08-25T04:47:22;8.57;;;7.00;;
60306;SDS011;46155;52.364;6.580;2022-08-25T04:49:48;7.20;;;6.70;;
60306;SDS011;46155;52.364;6.580;2022-08-25T04:52:13;11.60;;;7.30;;
60306;SDS011;46155;52.364;6.580;2022-08-25T04:54:39;9.67;;;6.90;;
60306;SDS011;46155;52.364;6.580;2022-08-25T04:57:04;9.13;;;8.23;;
60306;SDS011;46155;52.364;6.580;2022-08-25T04:59:30;8.33;;;7.63;;
60306;SDS011;46155;52.364;6.580;2022-08-25T05:01:55;11.27;;;8.90;;
60306;SDS011;46155;52.364;6.580;2022-08-25T05:04:22;12.73;;;7.47;;
60306;SDS011;46155;52.364;6.580;2022-08-25T05:06:47;10.83;;;7.90;;
60306;SDS011;46155;52.364;6.580;2022-08-25T05:09:13;7.90;;;7.20;;
60306;SDS011;46155;52.364;6.580;2022-08-25T05:11:38;11.37;;;7.67;;
60306;SDS011;46155;52.364;6.580;2022-08-25T05:14:04;8.87;;;8.03;;
60306;SDS011;46155;52.364;6.580;2022-08-25T05:16:35;8.60;;;7.70;;
60306;SDS011;46155;52.364;6.580;2022-08-25T05:19:00;9.37;;;7.63;;
60306;SDS011;46155;52.364;6.580;2022-08-25T05:21:26;8.47;;;7.40;;
60306;SDS011;46155;52.364;6.580;2022-08-25T05:23:53;12.40;;;7.00;;
60306;SDS011;46155;52.364;6.580;2022-08-25T05:26:22;8.20;;;7.20;;
60306;SDS011;46155;52.364;6.580;2022-08-25T05:28:50;8.30;;;7.23;;
60306;SDS011;46155;52.364;6.580;2022-08-25T05:31:17;9.20;;;8.23;;
60306;SDS011;46155;52.364;6.580;2022-08-25T05:33:43;10.93;;;7.50;;
60306;SDS011;46155;52.364;6.580;2022-08-25T05:36:09;10.30;;;7.70;;
60306;SDS011;46155;52.364;6.580;2022-08-25T05:38:36;13.50;;;8.07;;
60306;SDS011;46155;52.364;6.580;2022-08-25T05:41:04;8.43;;;7.57;;
60306;SDS011;46155;52.364;6.580;2022-08-25T05:43:34;14.80;;;7.33;;
60306;SDS011;46155;52.364;6.580;2022-08-25T05:46:00;9.50;;;7.87;;
60306;SDS011;46155;52.364;6.580;2022-08-25T05:48:26;9.07;;;8.17;;
60306;SDS011;46155;52.364;6.580;2022-08-25T05:50:55;8.40;;;7.60;;
60306;SDS011;46155;52.364;6.580;2022-08-25T05:53:22;8.60;;;7.80;;
60306;SDS011;46155;52.364;6.580;2022-08-25T05:55:52;8.37;;;7.57;;
60306;SDS011;46155;52.364;6.580;2022-08-25T05:58:19;8.10;;;7.37;;
60306;SDS011;46155;52.364;6.580;2022-08-25T06:00:45;7.37;;;6.87;;
60306;SDS011;46155;52.364;6.580;2022-08-25T06:03:11;8.40;;;6.40;;
60306;SDS011;46155;52.364;6.580;2022-08-25T06:05:37;7.97;;;7.27;;
60306;SDS011;46155;52.364;6.580;2022-08-25T06:08:02;8.67;;;7.10;;
60306;SDS011;46155;52.364;6.580;2022-08-25T06:10:28;7.57;;;6.73;;
60306;SDS011;46155;52.364;6.580;2022-08-25T06:12:54;7.50;;;6.90;;
60306;SDS011;46155;52.364;6.580;2022-08-25T06:15:20;9.73;;;7.60;;
60306;SDS011;46155;52.364;6.580;2022-08-25T06:17:47;11.20;;;7.00;;
60306;SDS011;46155;52.364;6.580;2022-08-25T06:20:14;7.73;;;7.13;;
60306;SDS011;46155;52.364;6.580;2022-08-25T06:22:44;8.13;;;7.27;;
60306;SDS011;46155;52.364;6.580;2022-08-25T06:25:11;17.20;;;7.70;;
60306;SDS011;46155;52.364;6.580;2022-08-25T06:27:37;9.10;;;8.00;;
60306;SDS011;46155;52.364;6.580;2022-08-25T06:30:06;8.73;;;7.93;;
60306;SDS011;46155;52.364;6.580;2022-08-25T06:32:35;8.57;;;7.77;;
60306;SDS011;46155;52.364;6.580;2022-08-25T06:35:03;13.13;;;8.03;;
60306;SDS011;46155;52.364;6.580;2022-08-25T06:37:30;8.57;;;7.77;;
60306;SDS011;46155;52.364;6.580;2022-08-25T06:39:55;8.23;;;7.40;;
60306;SDS011;46155;52.364;6.580;2022-08-25T06:42:21;11.93;;;6.87;;
60306;SDS011;46155;52.364;6.580;2022-08-25T06:44:46;8.50;;;7.73;;
60306;SDS011;46155;52.364;6.580;2022-08-25T06:47:12;10.00;;;7.90;;
60306;SDS011;46155;52.364;6.580;2022-08-25T06:49:39;9.27;;;8.37;;
60306;SDS011;46155;52.364;6.580;2022-08-25T06:52:06;12.47;;;7.37;;
60306;SDS011;46155;52.364;6.580;2022-08-25T06:54:31;10.80;;;7.80;;
60306;SDS011;46155;52.364;6.580;2022-08-25T06:56:57;10.03;;;7.40;;
60306;SDS011;46155;52.364;6.580;2022-08-25T06:59:22;8.70;;;7.17;;
60306;SDS011;46155;52.364;6.580;2022-08-25T07:01:47;9.87;;;7.10;;
60306;SDS011;46155;52.364;6.580;2022-08-25T07:04:12;13.87;;;7.10;;
60306;SDS011;46155;52.364;6.580;2022-08-25T07:06:38;8.10;;;7.30;;
60306;SDS011;46155;52.364;6.580;2022-08-25T07:09:04;11.77;;;7.40;;
60306;SDS011;46155;52.364;6.580;2022-08-25T07:11:30;9.10;;;7.17;;
60306;SDS011;46155;52.364;6.580;2022-08-25T07:14:02;10.93;;;7.97;;
60306;SDS011;46155;52.364;6.580;2022-08-25T07:16:30;8.17;;;7.37;;
60306;SDS011;46155;52.364;6.580;2022-08-25T07:18:56;7.57;;;6.93;;
60306;SDS011;46155;52.364;6.580;2022-08-25T07:21:23;8.23;;;7.43;;
60306;SDS011;46155;52.364;6.580;2022-08-25T07:23:50;8.37;;;7.50;;
60306;SDS011;46155;52.364;6.580;2022-08-25T07:26:20;11.17;;;7.23;;
60306;SDS011;46155;52.364;6.580;2022-08-25T07:28:48;9.50;;;7.10;;
60306;SDS011;46155;52.364;6.580;2022-08-25T07:31:14;11.00;;;6.93;;
60306;SDS011;46155;52.364;6.580;2022-08-25T07:33:39;12.73;;;7.73;;
60306;SDS011;46155;52.364;6.580;2022-08-25T07:36:31;6.97;;;6.47;;
60306;SDS011;46155;52.364;6.580;2022-08-25T07:38:59;8.03;;;7.20;;
60306;SDS011;46155;52.364;6.580;2022-08-25T07:41:29;7.93;;;7.33;;
60306;SDS011;46155;52.364;6.580;2022-08-25T07:43:56;8.30;;;7.50;;
60306;SDS011;46155;52.364;6.580;2022-08-25T07:46:21;7.37;;;6.73;;
60306;SDS011;46155;52.364;6.580;2022-08-25T07:48:46;11.10;;;6.53;;
60306;SDS011;46155;52.364;6.580;2022-08-25T07:51:12;9.07;;;7.17;;
60306;SDS011;46155;52.364;6.580;2022-08-25T07:53:41;11.23;;;7.23;;
60306;SDS011;46155;52.364;6.580;2022-08-25T07:56:11;7.60;;;6.80;;
60306;SDS011;46155;52.364;6.580;2022-08-25T07:58:38;8.20;;;7.13;;
60306;SDS011;46155;52.364;6.580;2022-08-25T08:01:04;7.90;;;6.70;;
60306;SDS011;46155;52.364;6.580;2022-08-25T08:03:30;7.53;;;6.93;;
60306;SDS011;46155;52.364;6.580;2022-08-25T08:05:58;8.63;;;7.27;;
60306;SDS011;46155;52.364;6.580;2022-08-25T08:08:23;8.87;;;7.13;;
60306;SDS011;46155;52.364;6.580;2022-08-25T08:10:49;7.83;;;7.20;;
60306;SDS011;46155;52.364;6.580;2022-08-25T08:13:14;7.67;;;6.90;;
60306;SDS011;46155;52.364;6.580;2022-08-25T08:15:41;7.37;;;6.77;;
60306;SDS011;46155;52.364;6.580;2022-08-25T08:18:07;7.90;;;7.30;;
60306;SDS011;46155;52.364;6.580;2022-08-25T08:20:34;8.47;;;7.30;;
60306;SDS011;46155;52.364;6.580;2022-08-25T08:23:00;7.90;;;7.10;;
60306;SDS011;46155;52.364;6.580;2022-08-25T08:25:26;8.37;;;7.50;;
60306;SDS011;46155;52.364;6.580;2022-08-25T08:27:52;8.77;;;7.67;;
60306;SDS011;46155;52.364;6.580;2022-08-25T08:30:18;8.70;;;7.70;;
60306;SDS011;46155;52.364;6.580;2022-08-25T08:32:43;9.90;;;7.20;;
60306;SDS011;46155;52.364;6.580;2022-08-25T08:35:08;7.83;;;7.13;;
60306;SDS011;46155;52.364;6.580;2022-08-25T08:37:35;8.40;;;7.50;;
60306;SDS011;46155;52.364;6.580;2022-08-25T08:40:06;7.53;;;6.93;;
60306;SDS011;46155;52.364;6.580;2022-08-25T08:42:37;8.50;;;7.80;;
60306;SDS011;46155;52.364;6.580;2022-08-25T08:50:38;7.90;;;7.30;;
60306;SDS011;46155;52.364;6.580;2022-08-25T08:53:26;9.17;;;7.77;;
60306;SDS011;46155;52.364;6.580;2022-08-25T08:56:01;10.33;;;7.90;;
60306;SDS011;46155;52.364;6.580;2022-08-25T09:01:23;9.93;;;7.53;;
60306;SDS011;46155;52.364;6.580;2022-08-25T09:03:57;8.80;;;6.43;;
60306;SDS011;46155;52.364;6.580;2022-08-25T09:06:36;8.00;;;7.30;;
60306;SDS011;46155;52.364;6.580;2022-08-25T09:09:11;12.07;;;8.33;;
60306;SDS011;46155;52.364;6.580;2022-08-25T09:29:03;20.37;;;8.07;;
60306;SDS011;46155;52.364;6.580;2022-08-25T09:31:35;8.63;;;7.80;;
60306;SDS011;46155;52.364;6.580;2022-08-25T09:34:03;8.53;;;7.43;;
60306;SDS011;46155;52.364;6.580;2022-08-25T09:36:31;8.47;;;7.77;;
60306;SDS011;46155;52.364;6.580;2022-08-25T09:38:58;9.67;;;7.87;;
60306;SDS011;46155;52.364;6.580;2022-08-25T09:41:43;8.33;;;7.53;;
60306;SDS011;46155;52.364;6.580;2022-08-25T09:47:12;8.57;;;7.87;;
60306;SDS011;46155;52.364;6.580;2022-08-25T09:49:47;8.43;;;7.50;;
60306;SDS011;46155;52.364;6.580;2022-08-25T09:52:38;9.30;;;8.43;;
60306;SDS011;46155;52.364;6.580;2022-08-25T09:59:55;8.33;;;7.73;;
60306;SDS011;46155;52.364;6.580;2022-08-25T10:02:26;8.37;;;7.77;;
60306;SDS011;46155;52.364;6.580;2022-08-25T10:04:53;7.67;;;6.87;;
60306;SDS011;46155;52.364;6.580;2022-08-25T10:07:25;8.17;;;7.37;;
60306;SDS011;46155;52.364;6.580;2022-08-25T10:09:53;7.43;;;6.83;;
60306;SDS011;46155;52.364;6.580;2022-08-25T10:12:22;8.90;;;8.10;;
60306;SDS011;46155;52.364;6.580;2022-08-25T10:14:53;9.13;;;8.23;;
60306;SDS011;46155;52.364;6.580;2022-08-25T10:17:23;9.20;;;7.50;;
60306;SDS011;46155;52.364;6.580;2022-08-25T10:20:11;7.93;;;7.23;;
60306;SDS011;46155;52.364;6.580;2022-08-25T10:22:37;9.00;;;8.10;;
60306;SDS011;46155;52.364;6.580;2022-08-25T10:25:05;7.43;;;6.80;;
60306;SDS011;46155;52.364;6.580;2022-08-25T10:30:48;8.93;;;7.30;;
60306;SDS011;46155;52.364;6.580;2022-08-25T10:33:43;8.32;;;7.50;;
60306;SDS011;46155;52.364;6.580;2022-08-25T10:36:44;7.70;;;6.97;;
60306;SDS011;46155;52.364;6.580;2022-08-25T10:42:03;7.82;;;7.03;;
60306;SDS011;46155;52.364;6.580;2022-08-25T11:04:28;7.70;;;7.15;;
60306;SDS011;46155;52.364;6.580;2022-08-25T11:07:10;7.15;;;6.65;;
60306;SDS011;46155;52.364;6.580;2022-08-25T11:09:47;7.55;;;6.95;;
60306;SDS011;46155;52.364;6.580;2022-08-25T11:12:25;7.55;;;6.70;;
60306;SDS011;46155;52.364;6.580;2022-08-25T11:14:59;8.13;;;7.38;;
60306;SDS011;46155;52.364;6.580;2022-08-25T11:20:31;7.88;;;7.18;;
60306;SDS011;46155;52.364;6.580;2022-08-25T11:23:14;8.57;;;7.65;;
60306;SDS011;46155;52.364;6.580;2022-08-25T11:25:52;7.32;;;6.85;;
60306;SDS011;46155;52.364;6.580;2022-08-25T11:28:30;8.60;;;8.00;;
60306;SDS011;46155;52.364;6.580;2022-08-25T11:31:03;8.23;;;7.55;;
60306;SDS011;46155;52.364;6.580;2022-08-25T11:33:29;8.15;;;7.55;;
60306;SDS011;46155;52.364;6.580;2022-08-25T11:35:58;8.18;;;7.65;;
60306;SDS011;46155;52.364;6.580;2022-08-25T11:49:44;7.97;;;7.45;;
60306;SDS011;46155;52.364;6.580;2022-08-25T11:54:57;8.32;;;7.63;;
60306;SDS011;46155;52.364;6.580;2022-08-25T11:57:30;8.60;;;7.80;;
60306;SDS011;46155;52.364;6.580;2022-08-25T12:02:47;7.55;;;6.85;;
60306;SDS011;46155;52.364;6.580;2022-08-25T12:10:11;9.70;;;7.32;;
60306;SDS011;46155;52.364;6.580;2022-08-25T12:18:15;7.88;;;7.13;;
60306;SDS011;46155;52.364;6.580;2022-08-25T12:23:39;7.88;;;7.10;;
60306;SDS011;46155;52.364;6.580;2022-08-25T12:26:15;7.00;;;6.60;;
60306;SDS011;46155;52.364;6.580;2022-08-25T12:28:56;7.93;;;7.32;;
60306;SDS011;46155;52.364;6.580;2022-08-25T12:36:59;8.38;;;7.68;;
60306;SDS011;46155;52.364;6.580;2022-08-25T12:39:30;9.02;;;8.02;;
60306;SDS011;46155;52.364;6.580;2022-08-25T12:42:06;8.30;;;7.70;;
60306;SDS011;46155;52.364;6.580;2022-08-25T12:44:47;7.88;;;7.38;;
60306;SDS011;46155;52.364;6.580;2022-08-25T12:47:31;8.38;;;7.63;;
60306;SDS011;46155;52.364;6.580;2022-08-25T12:55:37;6.55;;;6.15;;
60306;SDS011;46155;52.364;6.580;2022-08-25T12:58:07;7.60;;;6.90;;
60306;SDS011;46155;52.364;6.580;2022-08-25T13:00:56;7.25;;;6.78;;
60306;SDS011;46155;52.364;6.580;2022-08-25T13:06:35;7.80;;;7.22;;
60306;SDS011;46155;52.364;6.580;2022-08-25T13:14:45;7.30;;;6.68;;
60306;SDS011;46155;52.364;6.580;2022-08-25T13:17:28;8.18;;;7.57;;
60306;SDS011;46155;52.364;6.580;2022-08-25T13:22:38;6.65;;;6.25;;
60306;SDS011;46155;52.364;6.580;2022-08-25T13:25:04;7.07;;;6.57;;
60306;SDS011;46155;52.364;6.580;2022-08-25T13:27:30;7.32;;;6.65;;
60306;SDS011;46155;52.364;6.580;2022-08-25T13:29:59;7.03;;;6.63;;
60306;SDS011;46155;52.364;6.580;2022-08-25T13:32:29;8.50;;;7.30;;
60306;SDS011;46155;52.364;6.580;2022-08-25T13:35:07;7.32;;;6.93;;
60306;SDS011;46155;52.364;6.580;2022-08-25T13:37:35;7.70;;;7.18;;
60306;SDS011;46155;52.364;6.580;2022-08-25T13:40:08;7.55;;;7.15;;
60306;SDS011;46155;52.364;6.580;2022-08-25T13:42:34;7.38;;;6.88;;
60306;SDS011;46155;52.364;6.580;2022-08-25T13:45:03;8.15;;;7.43;;
60306;SDS011;46155;52.364;6.580;2022-08-25T13:50:16;7.63;;;7.10;;
60306;SDS011;46155;52.364;6.580;2022-08-25T13:52:48;8.70;;;7.00;;
60306;SDS011;46155;52.364;6.580;2022-08-25T13:55:21;7.72;;;7.22;;
60306;SDS011;46155;52.364;6.580;2022-08-25T13:57:50;7.05;;;6.55;;
60306;SDS011;46155;52.364;6.580;2022-08-25T14:00:24;7.63;;;7.13;;
60306;SDS011;46155;52.364;6.580;2022-08-25T14:02:53;7.10;;;6.70;;
60306;SDS011;46155;52.364;6.580;2022-08-25T14:05:35;7.70;;;7.10;;
60306;SDS011;46155;52.364;6.580;2022-08-25T14:08:03;7.97;;;7.28;;
60306;SDS011;46155;52.364;6.580;2022-08-25T14:10:36;8.05;;;7.43;;
60306;SDS011;46155;52.364;6.580;2022-08-25T14:15:36;8.25;;;7.45;;
60306;SDS011;46155;52.364;6.580;2022-08-25T14:18:07;7.57;;;6.97;;
60306;SDS011;46155;52.364;6.580;2022-08-25T14:20:41;9.73;;;7.35;;
60306;SDS011;46155;52.364;6.580;2022-08-25T14:23:09;8.13;;;7.53;;
60306;SDS011;46155;52.364;6.580;2022-08-25T14:25:39;8.38;;;7.78;;
60306;SDS011;46155;52.364;6.580;2022-08-25T14:28:05;7.57;;;7.10;;
60306;SDS011;46155;52.364;6.580;2022-08-25T14:30:35;7.30;;;6.75;;
60306;SDS011;46155;52.364;6.580;2022-08-25T14:33:05;7.53;;;7.07;;
60306;SDS011;46155;52.364;6.580;2022-08-25T14:35:32;7.10;;;6.68;;
60306;SDS011;46155;52.364;6.580;2022-08-25T14:37:57;8.27;;;7.20;;
60306;SDS011;46155;52.364;6.580;2022-08-25T14:40:23;7.82;;;7.15;;
60306;SDS011;46155;52.364;6.580;2022-08-25T14:42:48;8.65;;;7.35;;
60306;SDS011;46155;52.364;6.580;2022-08-25T14:45:15;9.48;;;7.30;;
60306;SDS011;46155;52.364;6.580;2022-08-25T14:47:42;8.63;;;7.68;;
60306;SDS011;46155;52.364;6.580;2022-08-25T14:50:10;7.13;;;6.60;;
60306;SDS011;46155;52.364;6.580;2022-08-25T14:52:39;7.38;;;6.63;;
60306;SDS011;46155;52.364;6.580;2022-08-25T14:55:06;7.20;;;6.80;;
60306;SDS011;46155;52.364;6.580;2022-08-25T14:57:32;10.10;;;7.75;;
60306;SDS011;46155;52.364;6.580;2022-08-25T14:59:59;7.53;;;6.93;;
60306;SDS011;46155;52.364;6.580;2022-08-25T15:02:25;8.45;;;7.65;;
60306;SDS011;46155;52.364;6.580;2022-08-25T15:04:55;7.93;;;7.28;;
60306;SDS011;46155;52.364;6.580;2022-08-25T15:07:23;6.43;;;5.80;;
60306;SDS011;46155;52.364;6.580;2022-08-25T15:10:08;7.38;;;6.93;;
60306;SDS011;46155;52.364;6.580;2022-08-25T15:12:34;7.53;;;6.93;;
60306;SDS011;46155;52.364;6.580;2022-08-25T15:14:59;7.47;;;6.90;;
60306;SDS011;46155;52.364;6.580;2022-08-25T15:17:28;6.55;;;6.05;;
60306;SDS011;46155;52.364;6.580;2022-08-25T15:19:54;6.63;;;6.18;;
60306;SDS011;46155;52.364;6.580;2022-08-25T15:22:19;7.30;;;6.28;;
60306;SDS011;46155;52.364;6.580;2022-08-25T15:24:45;6.05;;;5.65;;
60306;SDS011;46155;52.364;6.580;2022-08-25T15:27:10;7.38;;;6.88;;
60306;SDS011;46155;52.364;6.580;2022-08-25T15:29:37;6.63;;;6.22;;
60306;SDS011;46155;52.364;6.580;2022-08-25T15:32:03;7.57;;;6.97;;
60306;SDS011;46155;52.364;6.580;2022-08-25T15:34:31;7.00;;;6.35;;
60306;SDS011;46155;52.364;6.580;2022-08-25T15:36:57;7.15;;;6.65;;
60306;SDS011;46155;52.364;6.580;2022-08-25T15:39:23;7.13;;;6.63;;
60306;SDS011;46155;52.364;6.580;2022-08-25T15:41:49;7.40;;;6.80;;
60306;SDS011;46155;52.364;6.580;2022-08-25T15:44:16;7.20;;;6.20;;
60306;SDS011;46155;52.364;6.580;2022-08-25T15:46:42;7.43;;;6.72;;
60306;SDS011;46155;52.364;6.580;2022-08-25T15:49:08;8.25;;;6.43;;
60306;SDS011;46155;52.364;6.580;2022-08-25T15:51:33;7.05;;;6.53;;
60306;SDS011;46155;52.364;6.580;2022-08-25T15:53:58;6.47;;;5.88;;
60306;SDS011;46155;52.364;6.580;2022-08-25T15:56:24;7.30;;;6.78;;
60306;SDS011;46155;52.364;6.580;2022-08-25T15:58:50;8.55;;;7.65;;
60306;SDS011;46155;52.364;6.580;2022-08-25T16:01:16;6.65;;;6.03;;
60306;SDS011;46155;52.364;6.580;2022-08-25T16:03:51;6.85;;;6.28;;
60306;SDS011;46155;52.364;6.580;2022-08-25T16:06:17;7.25;;;6.75;;
60306;SDS011;46155;52.364;6.580;2022-08-25T16:08:43;6.88;;;6.38;;
60306;SDS011;46155;52.364;6.580;2022-08-25T16:11:22;7.75;;;7.00;;
60306;SDS011;46155;52.364;6.580;2022-08-25T16:13:49;7.63;;;6.68;;
60306;SDS011;46155;52.364;6.580;2022-08-25T16:16:18;7.35;;;6.75;;
60306;SDS011;46155;52.364;6.580;2022-08-25T16:18:44;6.90;;;6.40;;
60306;SDS011;46155;52.364;6.580;2022-08-25T16:21:11;7.38;;;6.88;;
60306;SDS011;46155;52.364;6.580;2022-08-25T16:23:39;6.60;;;6.20;;
60306;SDS011;46155;52.364;6.580;2022-08-25T16:26:06;12.98;;;7.25;;
60306;SDS011;46155;52.364;6.580;2022-08-25T16:28:33;8.27;;;6.53;;
60306;SDS011;46155;52.364;6.580;2022-08-25T16:30:59;12.13;;;6.47;;
60306;SDS011;46155;52.364;6.580;2022-08-25T16:33:24;7.30;;;6.78;;
60306;SDS011;46155;52.364;6.580;2022-08-25T16:35:50;8.00;;;6.50;;
60306;SDS011;46155;52.364;6.580;2022-08-25T16:38:15;7.20;;;6.70;;
60306;SDS011;46155;52.364;6.580;2022-08-25T16:40:41;6.38;;;5.97;;
60306;SDS011;46155;52.364;6.580;2022-08-25T16:43:08;7.00;;;6.45;;
60306;SDS011;46155;52.364;6.580;2022-08-25T16:45:34;6.57;;;6.07;;
60306;SDS011;46155;52.364;6.580;2022-08-25T16:48:00;9.70;;;6.55;;
60306;SDS011;46155;52.364;6.580;2022-08-25T16:50:26;7.30;;;6.70;;
60306;SDS011;46155;52.364;6.580;2022-08-25T16:52:54;7.25;;;6.75;;
60306;SDS011;46155;52.364;6.580;2022-08-25T16:55:38;7.00;;;6.50;;
60306;SDS011;46155;52.364;6.580;2022-08-25T16:58:03;6.90;;;6.35;;
60306;SDS011;46155;52.364;6.580;2022-08-25T17:00:29;6.90;;;6.30;;
60306;SDS011;46155;52.364;6.580;2022-08-25T17:02:58;7.22;;;6.63;;
60306;SDS011;46155;52.364;6.580;2022-08-25T17:05:29;7.55;;;6.80;;
60306;SDS011;46155;52.364;6.580;2022-08-25T17:07:58;6.57;;;5.43;;
60306;SDS011;46155;52.364;6.580;2022-08-25T17:10:43;6.60;;;6.10;;
60306;SDS011;46155;52.364;6.580;2022-08-25T17:13:08;6.80;;;6.30;;
60306;SDS011;46155;52.364;6.580;2022-08-25T17:15:38;7.03;;;6.45;;
60306;SDS011;46155;52.364;6.580;2022-08-25T17:18:07;5.82;;;5.35;;
60306;SDS011;46155;52.364;6.580;2022-08-25T17:20:33;6.72;;;6.22;;
60306;SDS011;46155;52.364;6.580;2022-08-25T17:23:00;6.43;;;6.03;;
60306;SDS011;46155;52.364;6.580;2022-08-25T17:25:25;7.25;;;6.65;;
60306;SDS011;46155;52.364;6.580;2022-08-25T17:27:51;6.68;;;6.28;;
60306;SDS011;46155;52.364;6.580;2022-08-25T17:30:16;9.07;;;7.10;;
60306;SDS011;46155;52.364;6.580;2022-08-25T17:32:42;8.95;;;7.00;;
60306;SDS011;46155;52.364;6.580;2022-08-25T17:35:07;8.38;;;7.63;;
60306;SDS011;46155;52.364;6.580;2022-08-25T17:37:33;9.88;;;7.22;;
60306;SDS011;46155;52.364;6.580;2022-08-25T17:39:58;7.72;;;7.03;;
60306;SDS011;46155;52.364;6.580;2022-08-25T17:42:24;7.25;;;6.28;;
60306;SDS011;46155;52.364;6.580;2022-08-25T17:44:49;7.75;;;7.15;;
60306;SDS011;46155;52.364;6.580;2022-08-25T17:47:14;7.75;;;7.15;;
60306;SDS011;46155;52.364;6.580;2022-08-25T17:49:40;7.65;;;7.13;;
60306;SDS011;46155;52.364;6.580;2022-08-25T17:52:05;7.67;;;7.10;;
60306;SDS011;46155;52.364;6.580;2022-08-25T17:54:30;7.80;;;7.20;;
60306;SDS011;46155;52.364;6.580;2022-08-25T17:56:56;7.70;;;7.20;;
60306;SDS011;46155;52.364;6.580;2022-08-25T17:59:21;10.30;;;7.70;;
60306;SDS011;46155;52.364;6.580;2022-08-25T18:01:47;8.10;;;7.40;;
60306;SDS011;46155;52.364;6.580;2022-08-25T18:04:13;9.57;;;8.33;;
60306;SDS011;46155;52.364;6.580;2022-08-25T18:06:39;11.13;;;7.57;;
60306;SDS011;46155;52.364;6.580;2022-08-25T18:09:04;7.63;;;6.93;;
60306;SDS011;46155;52.364;6.580;2022-08-25T18:11:30;7.17;;;6.57;;
60306;SDS011;46155;52.364;6.580;2022-08-25T18:13:56;8.43;;;7.63;;
60306;SDS011;46155;52.364;6.580;2022-08-25T18:16:22;8.43;;;7.77;;
60306;SDS011;46155;52.364;6.580;2022-08-25T18:18:48;9.43;;;8.30;;
60306;SDS011;46155;52.364;6.580;2022-08-25T18:21:16;9.30;;;8.20;;
60306;SDS011;46155;52.364;6.580;2022-08-25T18:23:42;10.87;;;7.73;;
60306;SDS011;46155;52.364;6.580;2022-08-25T18:26:08;9.80;;;8.50;;
60306;SDS011;46155;52.364;6.580;2022-08-25T18:28:35;9.30;;;8.60;;
60306;SDS011;46155;52.364;6.580;2022-08-25T18:31:01;8.57;;;7.93;;
60306;SDS011;46155;52.364;6.580;2022-08-25T18:33:26;8.87;;;8.17;;
60306;SDS011;46155;52.364;6.580;2022-08-25T18:35:53;9.17;;;8.03;;
60306;SDS011;46155;52.364;6.580;2022-08-25T18:38:18;9.60;;;8.80;;
60306;SDS011;46155;52.364;6.580;2022-08-25T18:41:03;9.63;;;8.73;;
60306;SDS011;46155;52.364;6.580;2022-08-25T18:43:30;9.73;;;8.73;;
60306;SDS011;46155;52.364;6.580;2022-08-25T18:45:56;16.30;;;8.63;;
60306;SDS011;46155;52.364;6.580;2022-08-25T18:48:23;11.80;;;7.73;;
60306;SDS011;46155;52.364;6.580;2022-08-25T18:50:50;14.50;;;9.03;;
60306;SDS011;46155;52.364;6.580;2022-08-25T18:53:18;15.80;;;9.20;;
60306;SDS011;46155;52.364;6.580;2022-08-25T18:55:44;10.07;;;8.53;;
60306;SDS011;46155;52.364;6.580;2022-08-25T18:58:10;12.53;;;8.40;;
60306;SDS011;46155;52.364;6.580;2022-08-25T19:00:36;10.03;;;9.03;;
60306;SDS011;46155;52.364;6.580;2022-08-25T19:03:02;10.10;;;9.10;;
60306;SDS011;46155;52.364;6.580;2022-08-25T19:05:30;14.10;;;9.57;;
60306;SDS011;46155;52.364;6.580;2022-08-25T19:07:58;12.20;;;9.60;;
60306;SDS011;46155;52.364;6.580;2022-08-25T19:10:26;15.33;;;9.63;;
60306;SDS011;46155;52.364;6.580;2022-08-25T19:12:52;11.43;;;9.87;;
60306;SDS011;46155;52.364;6.580;2022-08-25T19:15:21;14.17;;;9.47;;
60306;SDS011;46155;52.364;6.580;2022-08-25T19:17:46;10.70;;;9.63;;
60306;SDS011;46155;52.364;6.580;2022-08-25T19:20:12;10.67;;;9.67;;
60306;SDS011;46155;52.364;6.580;2022-08-25T19:22:38;10.77;;;9.87;;
60306;SDS011;46155;52.364;6.580;2022-08-25T19:25:04;14.33;;;12.00;;
60306;SDS011;46155;52.364;6.580;2022-08-25T19:27:31;11.53;;;10.43;;
60306;SDS011;46155;52.364;6.580;2022-08-25T19:29:57;15.50;;;10.60;;
60306;SDS011;46155;52.364;6.580;2022-08-25T19:32:22;10.40;;;8.97;;
60306;SDS011;46155;52.364;6.580;2022-08-25T19:34:48;11.33;;;10.27;;
60306;SDS011;46155;52.364;6.580;2022-08-25T19:37:19;10.80;;;9.80;;
60306;SDS011;46155;52.364;6.580;2022-08-25T19:39:46;11.27;;;10.17;;
60306;SDS011;46155;52.364;6.580;2022-08-25T19:42:12;12.23;;;10.27;;
60306;SDS011;46155;52.364;6.580;2022-08-25T19:44:39;13.90;;;10.53;;
60306;SDS011;46155;52.364;6.580;2022-08-25T19:47:05;11.10;;;10.13;;
60306;SDS011;46155;52.364;6.580;2022-08-25T19:49:33;18.63;;;9.77;;
60306;SDS011;46155;52.364;6.580;2022-08-25T19:52:04;10.73;;;9.27;;
60306;SDS011;46155;52.364;6.580;2022-08-25T19:54:33;13.37;;;10.07;;